TimeCDT,TemperatureF,Dew PointF,Humidity,Sea Level PressureIn,VisibilityMPH,Wind Direction,Wind SpeedMPH,Gust SpeedMPH,PrecipitationIn,Events,Conditions,WindDirDegrees,DateUTC
12:57 AM,59.0,50.0,72,30.25,10.0,East,6.9,-,N/A,,Clear,100,2013-10-14 05:57:00
1:57 AM,60.1,48.9,67,30.23,2.0,East,10.4,-,N/A,,Haze,90,2013-10-14 06:57:00
2:07 AM,60.8,48.2,63,30.26,3.0,East,9.2,-,N/A,,Haze,90,2013-10-14 07:07:00
2:57 AM,60.1,48.9,67,30.22,10.0,East,9.2,-,N/A,,Clear,90,2013-10-14 07:57:00
3:57 AM,59.0,48.0,67,30.21,10.0,East,10.4,-,N/A,,Clear,100,2013-10-14 08:57:00
4:57 AM,59.0,48.9,69,30.20,10.0,East,8.1,-,N/A,,Clear,100,2013-10-14 09:57:00
5:57 AM,59.0,46.9,64,30.19,10.0,East,11.5,-,N/A,,Clear,100,2013-10-14 10:57:00
6:57 AM,59.0,46.9,64,30.19,10.0,East,11.5,18.4,N/A,,Clear,100,2013-10-14 11:57:00
7:57 AM,59.0,46.9,64,30.19,10.0,East,9.2,-,N/A,,Clear,100,2013-10-14 12:57:00
8:57 AM,60.1,46.0,60,30.20,10.0,ESE,11.5,-,N/A,,Clear,110,2013-10-14 13:57:00
9:57 AM,61.0,46.9,60,30.19,10.0,ESE,12.7,20.7,N/A,,Scattered Clouds,120,2013-10-14 14:57:00
10:57 AM,61.0,50.0,67,30.18,10.0,ESE,10.4,-,N/A,,Mostly Cloudy,110,2013-10-14 15:57:00
11:57 AM,63.0,52.0,67,30.16,10.0,SE,9.2,-,N/A,,Mostly Cloudy,130,2013-10-14 16:57:00
12:57 PM,64.9,55.0,70,30.12,10.0,East,9.2,-,N/A,,Overcast,100,2013-10-14 17:57:00
1:57 PM,66.0,57.9,75,30.08,10.0,ESE,8.1,-,N/A,,Partly Cloudy,110,2013-10-14 18:57:00
2:57 PM,66.9,60.1,79,30.05,10.0,ESE,8.1,-,0.00,Rain,Light Rain,120,2013-10-14 19:57:00
3:57 PM,66.9,60.1,79,30.04,10.0,SE,9.2,-,0.00,Rain,Light Rain,140,2013-10-14 20:57:00
4:57 PM,64.0,60.1,87,30.03,8.0,SE,10.4,-,0.04,Rain,Light Rain,130,2013-10-14 21:57:00
5:57 PM,63.0,59.0,87,30.02,10.0,ESE,8.1,-,0.04,Rain,Light Rain,110,2013-10-14 22:57:00
6:57 PM,62.1,59.0,90,30.03,10.0,SE,10.4,-,0.01,Rain,Light Rain,140,2013-10-14 23:57:00
7:57 PM,61.0,57.9,90,30.03,10.0,SE,12.7,-,0.06,Rain,Light Rain,140,2013-10-15 00:57:00
8:57 PM,62.1,59.0,90,30.03,10.0,SSE,11.5,-,0.03,Rain,Light Rain,150,2013-10-15 01:57:00
9:57 PM,62.1,59.0,90,30.02,10.0,SE,12.7,-,0.00,,Overcast,140,2013-10-15 02:57:00
10:39 PM,62.6,57.2,82,30.03,10.0,SE,13.8,21.9,0.00,Rain,Light Rain,140,2013-10-15 03:39:00
10:44 PM,62.6,57.2,82,30.03,10.0,SSE,16.1,21.9,0.00,Rain,Light Rain,150,2013-10-15 03:44:00
10:57 PM,62.1,57.0,84,30.01,10.0,SSE,15.0,23.0,0.00,Rain,Light Rain,150,2013-10-15 03:57:00
11:57 PM,61.0,55.9,83,29.98,10.0,SE,12.7,-,0.00,,Overcast,140,2013-10-15 04:57:00